sensor_id;sensor_type;location;lat;lon;timestamp;P1;durP1;ratioP1;P2;durP2;ratioP2
39846;SDS011;25517;52.422;10.782;2022-12-10T00:00:53;40.95;;;16.83;;
39846;SDS011;25517;52.422;10.782;2022-12-10T00:03:18;37.83;;;17.10;;
39846;SDS011;25517;52.422;10.782;2022-12-10T00:05:44;42.05;;;16.42;;
39846;SDS011;25517;52.422;10.782;2022-12-10T00:08:10;46.05;;;18.42;;
39846;SDS011;25517;52.422;10.782;2022-12-10T00:10:39;41.30;;;16.83;;
39846;SDS011;25517;52.422;10.782;2022-12-10T00:13:05;41.05;;;16.60;;
39846;SDS011;25517;52.422;10.782;2022-12-10T00:15:33;39.65;;;16.75;;
39846;SDS011;25517;52.422;10.782;2022-12-10T00:18:00;37.67;;;16.38;;
39846;SDS011;25517;52.422;10.782;2022-12-10T00:20:26;39.90;;;16.58;;
39846;SDS011;25517;52.422;10.782;2022-12-10T00:22:52;41.85;;;16.50;;
39846;SDS011;25517;52.422;10.782;2022-12-10T00:25:18;45.60;;;18.70;;
39846;SDS011;25517;52.422;10.782;2022-12-10T00:27:44;45.95;;;18.05;;
39846;SDS011;25517;52.422;10.782;2022-12-10T00:30:09;45.90;;;18.13;;
39846;SDS011;25517;52.422;10.782;2022-12-10T00:32:35;45.00;;;18.02;;
39846;SDS011;25517;52.422;10.782;2022-12-10T00:35:01;44.65;;;18.35;;
39846;SDS011;25517;52.422;10.782;2022-12-10T00:37:26;48.80;;;18.85;;
39846;SDS011;25517;52.422;10.782;2022-12-10T00:39:52;45.30;;;18.55;;
39846;SDS011;25517;52.422;10.782;2022-12-10T00:42:17;42.28;;;18.23;;
39846;SDS011;25517;52.422;10.782;2022-12-10T00:44:43;53.83;;;21.70;;
39846;SDS011;25517;52.422;10.782;2022-12-10T00:47:08;42.53;;;18.30;;
39846;SDS011;25517;52.422;10.782;2022-12-10T00:49:34;50.47;;;20.05;;
39846;SDS011;25517;52.422;10.782;2022-12-10T00:51:59;43.70;;;18.13;;
39846;SDS011;25517;52.422;10.782;2022-12-10T00:54:24;48.00;;;17.92;;
39846;SDS011;25517;52.422;10.782;2022-12-10T00:56:50;53.58;;;20.75;;
39846;SDS011;25517;52.422;10.782;2022-12-10T00:59:15;58.25;;;21.55;;
39846;SDS011;25517;52.422;10.782;2022-12-10T01:01:41;49.88;;;20.15;;
39846;SDS011;25517;52.422;10.782;2022-12-10T01:04:08;50.25;;;20.70;;
39846;SDS011;25517;52.422;10.782;2022-12-10T01:06:36;50.80;;;20.42;;
39846;SDS011;25517;52.422;10.782;2022-12-10T01:09:11;50.42;;;19.58;;
39846;SDS011;25517;52.422;10.782;2022-12-10T01:11:38;49.13;;;20.02;;
39846;SDS011;25517;52.422;10.782;2022-12-10T01:14:06;42.17;;;18.73;;
39846;SDS011;25517;52.422;10.782;2022-12-10T01:16:33;55.25;;;22.45;;
39846;SDS011;25517;52.422;10.782;2022-12-10T01:18:59;52.88;;;20.42;;
39846;SDS011;25517;52.422;10.782;2022-12-10T01:21:25;52.90;;;21.35;;
39846;SDS011;25517;52.422;10.782;2022-12-10T01:23:52;46.33;;;19.23;;
39846;SDS011;25517;52.422;10.782;2022-12-10T01:26:22;52.13;;;21.55;;
39846;SDS011;25517;52.422;10.782;2022-12-10T01:28:50;50.47;;;20.48;;
39846;SDS011;25517;52.422;10.782;2022-12-10T01:31:18;53.67;;;22.17;;
39846;SDS011;25517;52.422;10.782;2022-12-10T01:33:45;53.05;;;21.35;;
39846;SDS011;25517;52.422;10.782;2022-12-10T01:36:12;51.67;;;21.30;;
39846;SDS011;25517;52.422;10.782;2022-12-10T01:38:43;47.65;;;20.40;;
39846;SDS011;25517;52.422;10.782;2022-12-10T01:41:13;55.65;;;21.55;;
39846;SDS011;25517;52.422;10.782;2022-12-10T01:43:48;49.83;;;21.92;;
39846;SDS011;25517;52.422;10.782;2022-12-10T01:46:24;51.28;;;21.48;;
39846;SDS011;25517;52.422;10.782;2022-12-10T01:48:55;51.22;;;21.52;;
39846;SDS011;25517;52.422;10.782;2022-12-10T01:51:21;53.70;;;23.23;;
39846;SDS011;25517;52.422;10.782;2022-12-10T01:53:49;54.75;;;22.33;;
39846;SDS011;25517;52.422;10.782;2022-12-10T01:56:16;58.70;;;21.50;;
39846;SDS011;25517;52.422;10.782;2022-12-10T01:58:43;57.20;;;23.27;;
39846;SDS011;25517;52.422;10.782;2022-12-10T02:01:14;48.65;;;21.63;;
39846;SDS011;25517;52.422;10.782;2022-12-10T02:04:03;50.55;;;22.13;;
39846;SDS011;25517;52.422;10.782;2022-12-10T02:09:09;54.50;;;22.85;;
39846;SDS011;25517;52.422;10.782;2022-12-10T02:14:28;59.28;;;24.45;;
39846;SDS011;25517;52.422;10.782;2022-12-10T02:16:59;56.05;;;23.13;;
39846;SDS011;25517;52.422;10.782;2022-12-10T02:20:17;52.67;;;21.75;;
39846;SDS011;25517;52.422;10.782;2022-12-10T02:22:34;55.20;;;23.90;;
39846;SDS011;25517;52.422;10.782;2022-12-10T02:25:06;52.47;;;22.23;;
39846;SDS011;25517;52.422;10.782;2022-12-10T02:30:43;59.75;;;23.55;;
39846;SDS011;25517;52.422;10.782;2022-12-10T02:33:10;64.15;;;26.55;;
39846;SDS011;25517;52.422;10.782;2022-12-10T02:35:38;53.13;;;23.58;;
39846;SDS011;25517;52.422;10.782;2022-12-10T02:38:11;59.38;;;26.55;;
39846;SDS011;25517;52.422;10.782;2022-12-10T02:40:42;55.60;;;23.27;;
39846;SDS011;25517;52.422;10.782;2022-12-10T02:43:12;55.05;;;24.40;;
39846;SDS011;25517;52.422;10.782;2022-12-10T02:45:39;59.67;;;25.33;;
39846;SDS011;25517;52.422;10.782;2022-12-10T02:48:05;60.55;;;25.35;;
39846;SDS011;25517;52.422;10.782;2022-12-10T02:50:31;56.08;;;24.98;;
39846;SDS011;25517;52.422;10.782;2022-12-10T02:52:57;55.15;;;24.58;;
39846;SDS011;25517;52.422;10.782;2022-12-10T02:55:22;52.80;;;21.85;;
39846;SDS011;25517;52.422;10.782;2022-12-10T03:00:17;57.25;;;24.15;;
39846;SDS011;25517;52.422;10.782;2022-12-10T03:05:25;50.67;;;23.40;;
39846;SDS011;25517;52.422;10.782;2022-12-10T03:13:11;54.85;;;22.95;;
39846;SDS011;25517;52.422;10.782;2022-12-10T03:15:40;55.88;;;25.10;;
39846;SDS011;25517;52.422;10.782;2022-12-10T03:18:08;56.83;;;24.60;;
39846;SDS011;25517;52.422;10.782;2022-12-10T03:20:39;59.25;;;23.30;;
39846;SDS011;25517;52.422;10.782;2022-12-10T03:23:09;56.90;;;25.27;;
39846;SDS011;25517;52.422;10.782;2022-12-10T03:25:38;60.75;;;24.42;;
39846;SDS011;25517;52.422;10.782;2022-12-10T03:28:04;57.22;;;23.92;;
39846;SDS011;25517;52.422;10.782;2022-12-10T03:30:31;58.42;;;24.27;;
39846;SDS011;25517;52.422;10.782;2022-12-10T03:32:58;58.40;;;26.48;;
39846;SDS011;25517;52.422;10.782;2022-12-10T03:35:25;60.83;;;25.30;;
39846;SDS011;25517;52.422;10.782;2022-12-10T03:37:50;65.97;;;25.58;;
39846;SDS011;25517;52.422;10.782;2022-12-10T03:40:17;72.35;;;27.35;;
39846;SDS011;25517;52.422;10.782;2022-12-10T03:42:46;63.45;;;26.80;;
39846;SDS011;25517;52.422;10.782;2022-12-10T03:45:11;66.65;;;25.25;;
39846;SDS011;25517;52.422;10.782;2022-12-10T03:47:37;62.38;;;25.58;;
39846;SDS011;25517;52.422;10.782;2022-12-10T03:50:03;70.40;;;26.48;;
39846;SDS011;25517;52.422;10.782;2022-12-10T03:52:28;66.32;;;24.50;;
39846;SDS011;25517;52.422;10.782;2022-12-10T03:54:54;64.15;;;25.17;;
39846;SDS011;25517;52.422;10.782;2022-12-10T03:57:19;65.72;;;25.55;;
39846;SDS011;25517;52.422;10.782;2022-12-10T03:59:45;65.03;;;24.45;;
39846;SDS011;25517;52.422;10.782;2022-12-10T04:02:10;66.50;;;25.83;;
39846;SDS011;25517;52.422;10.782;2022-12-10T04:04:36;70.32;;;27.67;;
39846;SDS011;25517;52.422;10.782;2022-12-10T04:07:01;72.57;;;27.35;;
39846;SDS011;25517;52.422;10.782;2022-12-10T04:09:27;62.17;;;25.02;;
39846;SDS011;25517;52.422;10.782;2022-12-10T04:11:56;62.83;;;24.55;;
39846;SDS011;25517;52.422;10.782;2022-12-10T04:14:23;62.25;;;26.25;;
39846;SDS011;25517;52.422;10.782;2022-12-10T04:17:07;71.47;;;27.73;;
39846;SDS011;25517;52.422;10.782;2022-12-10T04:19:33;63.53;;;25.85;;
39846;SDS011;25517;52.422;10.782;2022-12-10T04:21:59;66.05;;;25.33;;
39846;SDS011;25517;52.422;10.782;2022-12-10T04:24:43;71.47;;;25.15;;
39846;SDS011;25517;52.422;10.782;2022-12-10T04:27:28;63.90;;;24.98;;
39846;SDS011;25517;52.422;10.782;2022-12-10T04:29:56;57.03;;;24.73;;
39846;SDS011;25517;52.422;10.782;2022-12-10T04:32:22;65.00;;;24.63;;
39846;SDS011;25517;52.422;10.782;2022-12-10T04:34:50;74.22;;;26.58;;
39846;SDS011;25517;52.422;10.782;2022-12-10T04:37:16;74.35;;;26.50;;
39846;SDS011;25517;52.422;10.782;2022-12-10T04:39:44;72.53;;;25.90;;
39846;SDS011;25517;52.422;10.782;2022-12-10T04:42:10;73.13;;;26.30;;
39846;SDS011;25517;52.422;10.782;2022-12-10T04:44:35;73.30;;;28.80;;
39846;SDS011;25517;52.422;10.782;2022-12-10T04:47:01;70.63;;;25.00;;
39846;SDS011;25517;52.422;10.782;2022-12-10T04:49:29;63.67;;;24.70;;
39846;SDS011;25517;52.422;10.782;2022-12-10T04:51:54;66.53;;;26.65;;
39846;SDS011;25517;52.422;10.782;2022-12-10T04:54:20;74.00;;;28.80;;
39846;SDS011;25517;52.422;10.782;2022-12-10T04:56:46;74.40;;;29.33;;
39846;SDS011;25517;52.422;10.782;2022-12-10T04:59:12;75.72;;;27.75;;
39846;SDS011;25517;52.422;10.782;2022-12-10T05:01:37;71.25;;;28.38;;
39846;SDS011;25517;52.422;10.782;2022-12-10T05:04:06;71.60;;;26.63;;
39846;SDS011;25517;52.422;10.782;2022-12-10T05:06:33;76.65;;;27.75;;
39846;SDS011;25517;52.422;10.782;2022-12-10T05:08:58;69.32;;;27.38;;
39846;SDS011;25517;52.422;10.782;2022-12-10T05:11:25;73.78;;;26.45;;
39846;SDS011;25517;52.422;10.782;2022-12-10T05:13:52;67.25;;;27.25;;
39846;SDS011;25517;52.422;10.782;2022-12-10T05:16:19;61.85;;;24.50;;
39846;SDS011;25517;52.422;10.782;2022-12-10T05:18:46;59.22;;;24.77;;
39846;SDS011;25517;52.422;10.782;2022-12-10T05:21:12;58.97;;;22.58;;
39846;SDS011;25517;52.422;10.782;2022-12-10T05:23:41;65.07;;;25.02;;
39846;SDS011;25517;52.422;10.782;2022-12-10T05:26:10;59.35;;;23.65;;
39846;SDS011;25517;52.422;10.782;2022-12-10T05:28:42;58.28;;;22.55;;
39846;SDS011;25517;52.422;10.782;2022-12-10T05:31:16;60.97;;;23.85;;
39846;SDS011;25517;52.422;10.782;2022-12-10T05:33:44;60.08;;;24.35;;
39846;SDS011;25517;52.422;10.782;2022-12-10T05:36:10;56.03;;;22.77;;
39846;SDS011;25517;52.422;10.782;2022-12-10T05:38:38;63.00;;;23.60;;
39846;SDS011;25517;52.422;10.782;2022-12-10T05:41:06;55.53;;;22.13;;
39846;SDS011;25517;52.422;10.782;2022-12-10T05:43:33;51.10;;;21.98;;
39846;SDS011;25517;52.422;10.782;2022-12-10T05:46:03;55.40;;;21.80;;
39846;SDS011;25517;52.422;10.782;2022-12-10T05:48:31;53.30;;;22.05;;
39846;SDS011;25517;52.422;10.782;2022-12-10T05:50:58;54.83;;;22.35;;
39846;SDS011;25517;52.422;10.782;2022-12-10T05:53:35;56.72;;;23.42;;
39846;SDS011;25517;52.422;10.782;2022-12-10T05:56:06;62.17;;;23.75;;
39846;SDS011;25517;52.422;10.782;2022-12-10T05:58:33;50.72;;;22.00;;
39846;SDS011;25517;52.422;10.782;2022-12-10T06:00:59;60.10;;;22.73;;
39846;SDS011;25517;52.422;10.782;2022-12-10T06:03:30;54.38;;;21.50;;
39846;SDS011;25517;52.422;10.782;2022-12-10T06:05:56;52.95;;;22.27;;
39846;SDS011;25517;52.422;10.782;2022-12-10T06:08:22;53.28;;;21.25;;
39846;SDS011;25517;52.422;10.782;2022-12-10T06:10:47;52.30;;;21.20;;
39846;SDS011;25517;52.422;10.782;2022-12-10T06:13:13;54.42;;;21.42;;
39846;SDS011;25517;52.422;10.782;2022-12-10T06:15:39;54.05;;;22.60;;
39846;SDS011;25517;52.422;10.782;2022-12-10T06:18:06;55.97;;;22.83;;
39846;SDS011;25517;52.422;10.782;2022-12-10T06:20:32;50.15;;;21.55;;
39846;SDS011;25517;52.422;10.782;2022-12-10T06:22:57;56.13;;;21.92;;
39846;SDS011;25517;52.422;10.782;2022-12-10T06:25:23;49.70;;;21.30;;
39846;SDS011;25517;52.422;10.782;2022-12-10T06:27:52;50.92;;;20.17;;
39846;SDS011;25517;52.422;10.782;2022-12-10T06:30:18;59.17;;;23.75;;
39846;SDS011;25517;52.422;10.782;2022-12-10T06:32:44;57.92;;;23.10;;
39846;SDS011;25517;52.422;10.782;2022-12-10T06:35:09;57.25;;;22.88;;
39846;SDS011;25517;52.422;10.782;2022-12-10T06:37:36;51.47;;;21.30;;
39846;SDS011;25517;52.422;10.782;2022-12-10T06:40:02;63.42;;;26.20;;
39846;SDS011;25517;52.422;10.782;2022-12-10T06:42:28;61.83;;;23.08;;
39846;SDS011;25517;52.422;10.782;2022-12-10T06:44:54;51.97;;;20.73;;
39846;SDS011;25517;52.422;10.782;2022-12-10T06:47:19;58.03;;;23.02;;
39846;SDS011;25517;52.422;10.782;2022-12-10T06:49:45;57.72;;;22.52;;
39846;SDS011;25517;52.422;10.782;2022-12-10T06:52:11;58.78;;;23.98;;
39846;SDS011;25517;52.422;10.782;2022-12-10T06:54:36;63.75;;;23.95;;
39846;SDS011;25517;52.422;10.782;2022-12-10T06:57:02;59.30;;;22.55;;
39846;SDS011;25517;52.422;10.782;2022-12-10T06:59:28;54.78;;;22.27;;
39846;SDS011;25517;52.422;10.782;2022-12-10T07:01:53;56.38;;;23.27;;
39846;SDS011;25517;52.422;10.782;2022-12-10T07:04:19;65.28;;;25.77;;
39846;SDS011;25517;52.422;10.782;2022-12-10T07:06:45;57.95;;;22.73;;
39846;SDS011;25517;52.422;10.782;2022-12-10T07:09:11;53.65;;;22.58;;
39846;SDS011;25517;52.422;10.782;2022-12-10T07:11:37;54.97;;;22.05;;
39846;SDS011;25517;52.422;10.782;2022-12-10T07:14:03;53.47;;;21.23;;
39846;SDS011;25517;52.422;10.782;2022-12-10T07:16:30;55.72;;;22.23;;
39846;SDS011;25517;52.422;10.782;2022-12-10T07:18:56;58.95;;;23.08;;
39846;SDS011;25517;52.422;10.782;2022-12-10T07:21:24;56.30;;;23.52;;
39846;SDS011;25517;52.422;10.782;2022-12-10T07:23:51;61.58;;;25.30;;
39846;SDS011;25517;52.422;10.782;2022-12-10T07:26:18;60.40;;;23.58;;
39846;SDS011;25517;52.422;10.782;2022-12-10T07:28:45;65.90;;;26.15;;
39846;SDS011;25517;52.422;10.782;2022-12-10T07:31:10;63.88;;;25.20;;
39846;SDS011;25517;52.422;10.782;2022-12-10T07:33:36;71.68;;;24.92;;
39846;SDS011;25517;52.422;10.782;2022-12-10T07:36:03;61.13;;;23.70;;
39846;SDS011;25517;52.422;10.782;2022-12-10T07:38:33;54.10;;;22.23;;
39846;SDS011;25517;52.422;10.782;2022-12-10T07:41:02;60.35;;;22.13;;
39846;SDS011;25517;52.422;10.782;2022-12-10T07:43:36;65.35;;;23.67;;
39846;SDS011;25517;52.422;10.782;2022-12-10T07:46:08;65.50;;;25.30;;
39846;SDS011;25517;52.422;10.782;2022-12-10T07:48:35;67.72;;;24.20;;
39846;SDS011;25517;52.422;10.782;2022-12-10T07:51:03;65.45;;;23.95;;
39846;SDS011;25517;52.422;10.782;2022-12-10T07:53:29;72.53;;;24.58;;
39846;SDS011;25517;52.422;10.782;2022-12-10T07:55:55;67.30;;;24.20;;
39846;SDS011;25517;52.422;10.782;2022-12-10T07:58:20;59.70;;;22.63;;
39846;SDS011;25517;52.422;10.782;2022-12-10T08:00:46;65.88;;;24.55;;
39846;SDS011;25517;52.422;10.782;2022-12-10T08:03:12;57.90;;;21.42;;
39846;SDS011;25517;52.422;10.782;2022-12-10T08:05:37;73.25;;;25.50;;
39846;SDS011;25517;52.422;10.782;2022-12-10T08:08:03;70.95;;;23.60;;
39846;SDS011;25517;52.422;10.782;2022-12-10T08:10:29;71.15;;;23.77;;
39846;SDS011;25517;52.422;10.782;2022-12-10T08:12:57;58.20;;;21.42;;
39846;SDS011;25517;52.422;10.782;2022-12-10T08:15:23;53.33;;;21.90;;
39846;SDS011;25517;52.422;10.782;2022-12-10T08:17:49;62.92;;;21.77;;
39846;SDS011;25517;52.422;10.782;2022-12-10T08:20:14;66.97;;;25.10;;
39846;SDS011;25517;52.422;10.782;2022-12-10T08:22:40;70.78;;;25.70;;
39846;SDS011;25517;52.422;10.782;2022-12-10T08:25:06;68.50;;;23.75;;
39846;SDS011;25517;52.422;10.782;2022-12-10T08:27:31;63.45;;;23.80;;
39846;SDS011;25517;52.422;10.782;2022-12-10T08:29:57;64.05;;;23.05;;
39846;SDS011;25517;52.422;10.782;2022-12-10T08:32:23;59.75;;;23.50;;
39846;SDS011;25517;52.422;10.782;2022-12-10T08:34:48;59.20;;;21.92;;
39846;SDS011;25517;52.422;10.782;2022-12-10T08:37:14;65.50;;;23.88;;
39846;SDS011;25517;52.422;10.782;2022-12-10T08:39:39;66.95;;;23.60;;
39846;SDS011;25517;52.422;10.782;2022-12-10T08:42:05;62.00;;;23.98;;
39846;SDS011;25517;52.422;10.782;2022-12-10T08:44:31;61.40;;;23.50;;
39846;SDS011;25517;52.422;10.782;2022-12-10T08:46:56;58.63;;;22.50;;
39846;SDS011;25517;52.422;10.782;2022-12-10T08:49:22;62.85;;;26.10;;
39846;SDS011;25517;52.422;10.782;2022-12-10T08:51:48;64.75;;;24.20;;
39846;SDS011;25517;52.422;10.782;2022-12-10T08:54:14;65.55;;;25.08;;
39846;SDS011;25517;52.422;10.782;2022-12-10T08:56:39;64.78;;;24.38;;
39846;SDS011;25517;52.422;10.782;2022-12-10T08:59:05;59.85;;;24.85;;
39846;SDS011;25517;52.422;10.782;2022-12-10T09:01:31;60.40;;;21.65;;
39846;SDS011;25517;52.422;10.782;2022-12-10T09:03:57;52.33;;;21.23;;
39846;SDS011;25517;52.422;10.782;2022-12-10T09:06:23;57.10;;;22.35;;
39846;SDS011;25517;52.422;10.782;2022-12-10T09:08:49;57.13;;;22.65;;
39846;SDS011;25517;52.422;10.782;2022-12-10T09:11:26;60.80;;;22.77;;
39846;SDS011;25517;52.422;10.782;2022-12-10T09:13:54;49.92;;;20.08;;
39846;SDS011;25517;52.422;10.782;2022-12-10T09:16:20;58.30;;;23.00;;
39846;SDS011;25517;52.422;10.782;2022-12-10T09:18:46;63.10;;;23.27;;
39846;SDS011;25517;52.422;10.782;2022-12-10T09:21:16;56.92;;;22.63;;
39846;SDS011;25517;52.422;10.782;2022-12-10T09:23:42;56.05;;;22.98;;
39846;SDS011;25517;52.422;10.782;2022-12-10T09:26:08;47.67;;;20.80;;
39846;SDS011;25517;52.422;10.782;2022-12-10T09:28:37;54.05;;;22.20;;
39846;SDS011;25517;52.422;10.782;2022-12-10T09:31:03;54.75;;;22.70;;
39846;SDS011;25517;52.422;10.782;2022-12-10T09:33:30;49.40;;;19.98;;
39846;SDS011;25517;52.422;10.782;2022-12-10T09:35:56;59.58;;;20.90;;
39846;SDS011;25517;52.422;10.782;2022-12-10T09:38:22;56.15;;;21.17;;
39846;SDS011;25517;52.422;10.782;2022-12-10T09:40:55;51.38;;;20.70;;
39846;SDS011;25517;52.422;10.782;2022-12-10T09:48:52;48.35;;;20.27;;
39846;SDS011;25517;52.422;10.782;2022-12-10T09:54:11;50.53;;;19.35;;
39846;SDS011;25517;52.422;10.782;2022-12-10T09:56:51;43.75;;;18.30;;
39846;SDS011;25517;52.422;10.782;2022-12-10T09:59:40;43.10;;;16.77;;
39846;SDS011;25517;52.422;10.782;2022-12-10T10:02:22;43.65;;;16.98;;
39846;SDS011;25517;52.422;10.782;2022-12-10T10:04:54;49.08;;;20.10;;
39846;SDS011;25517;52.422;10.782;2022-12-10T10:07:30;43.50;;;17.05;;
39846;SDS011;25517;52.422;10.782;2022-12-10T10:10:01;48.83;;;18.83;;
39846;SDS011;25517;52.422;10.782;2022-12-10T10:12:30;48.67;;;18.38;;
39846;SDS011;25517;52.422;10.782;2022-12-10T10:14:57;43.55;;;19.33;;
39846;SDS011;25517;52.422;10.782;2022-12-10T10:17:29;48.63;;;20.10;;
39846;SDS011;25517;52.422;10.782;2022-12-10T10:20:01;47.80;;;19.67;;
39846;SDS011;25517;52.422;10.782;2022-12-10T10:22:26;50.28;;;20.40;;
39846;SDS011;25517;52.422;10.782;2022-12-10T10:24:52;40.92;;;17.83;;
39846;SDS011;25517;52.422;10.782;2022-12-10T10:27:19;51.08;;;21.25;;
39846;SDS011;25517;52.422;10.782;2022-12-10T10:29:48;53.58;;;21.50;;
39846;SDS011;25517;52.422;10.782;2022-12-10T10:32:19;48.28;;;21.33;;
39846;SDS011;25517;52.422;10.782;2022-12-10T10:34:51;40.83;;;19.23;;
39846;SDS011;25517;52.422;10.782;2022-12-10T10:37:24;47.53;;;19.98;;
39846;SDS011;25517;52.422;10.782;2022-12-10T10:39:53;45.45;;;20.85;;
39846;SDS011;25517;52.422;10.782;2022-12-10T10:48:05;46.50;;;19.25;;
39846;SDS011;25517;52.422;10.782;2022-12-10T10:50:43;39.03;;;17.15;;
39846;SDS011;25517;52.422;10.782;2022-12-10T10:53:29;42.63;;;18.27;;
39846;SDS011;25517;52.422;10.782;2022-12-10T10:56:17;41.45;;;18.13;;
39846;SDS011;25517;52.422;10.782;2022-12-10T11:01:17;34.90;;;16.63;;
39846;SDS011;25517;52.422;10.782;2022-12-10T11:03:47;34.28;;;16.48;;
39846;SDS011;25517;52.422;10.782;2022-12-10T11:06:15;36.28;;;17.75;;
39846;SDS011;25517;52.422;10.782;2022-12-10T11:08:42;35.50;;;15.90;;
39846;SDS011;25517;52.422;10.782;2022-12-10T11:11:16;30.00;;;14.95;;
39846;SDS011;25517;52.422;10.782;2022-12-10T11:13:42;34.00;;;14.63;;
39846;SDS011;25517;52.422;10.782;2022-12-10T11:16:23;31.60;;;15.68;;
39846;SDS011;25517;52.422;10.782;2022-12-10T11:21:21;30.90;;;15.73;;
39846;SDS011;25517;52.422;10.782;2022-12-10T11:23:48;35.45;;;18.08;;
39846;SDS011;25517;52.422;10.782;2022-12-10T11:29:05;36.83;;;17.85;;
39846;SDS011;25517;52.422;10.782;2022-12-10T11:34:48;37.28;;;16.95;;
39846;SDS011;25517;52.422;10.782;2022-12-10T11:45:27;38.10;;;17.75;;
39846;SDS011;25517;52.422;10.782;2022-12-10T11:50:52;31.73;;;16.77;;
39846;SDS011;25517;52.422;10.782;2022-12-10T11:56:47;29.50;;;14.90;;
39846;SDS011;25517;52.422;10.782;2022-12-10T11:59:28;29.10;;;14.52;;
39846;SDS011;25517;52.422;10.782;2022-12-10T12:05:05;27.08;;;14.38;;
39846;SDS011;25517;52.422;10.782;2022-12-10T12:07:56;30.25;;;15.57;;
39846;SDS011;25517;52.422;10.782;2022-12-10T12:11:04;29.08;;;14.27;;
39846;SDS011;25517;52.422;10.782;2022-12-10T12:16:40;28.67;;;14.57;;
39846;SDS011;25517;52.422;10.782;2022-12-10T12:19:19;30.55;;;14.77;;
39846;SDS011;25517;52.422;10.782;2022-12-10T12:21:50;27.65;;;15.32;;
39846;SDS011;25517;52.422;10.782;2022-12-10T12:24:25;30.90;;;15.15;;
39846;SDS011;25517;52.422;10.782;2022-12-10T12:27:05;30.23;;;14.70;;
39846;SDS011;25517;52.422;10.782;2022-12-10T12:29:42;23.85;;;12.85;;
39846;SDS011;25517;52.422;10.782;2022-12-10T12:32:26;30.70;;;15.55;;
39846;SDS011;25517;52.422;10.782;2022-12-10T12:35:01;99.28;;;55.00;;
39846;SDS011;25517;52.422;10.782;2022-12-10T12:37:45;45.78;;;23.30;;
39846;SDS011;25517;52.422;10.782;2022-12-10T12:40:33;20.52;;;12.35;;
39846;SDS011;25517;52.422;10.782;2022-12-10T12:43:09;25.15;;;12.77;;
39846;SDS011;25517;52.422;10.782;2022-12-10T12:45:40;19.00;;;10.23;;
39846;SDS011;25517;52.422;10.782;2022-12-10T12:51:19;21.38;;;10.82;;
39846;SDS011;25517;52.422;10.782;2022-12-10T12:53:57;26.17;;;12.27;;
39846;SDS011;25517;52.422;10.782;2022-12-10T12:56:25;21.35;;;11.90;;
39846;SDS011;25517;52.422;10.782;2022-12-10T13:01:49;22.88;;;12.05;;
39846;SDS011;25517;52.422;10.782;2022-12-10T13:04:37;21.38;;;11.73;;
39846;SDS011;25517;52.422;10.782;2022-12-10T13:09:48;19.98;;;11.25;;
39846;SDS011;25517;52.422;10.782;2022-12-10T13:12:44;23.92;;;13.25;;
39846;SDS011;25517;52.422;10.782;2022-12-10T13:17:40;22.17;;;11.40;;
39846;SDS011;25517;52.422;10.782;2022-12-10T13:22:57;22.60;;;12.25;;
39846;SDS011;25517;52.422;10.782;2022-12-10T13:25:41;23.75;;;12.13;;
39846;SDS011;25517;52.422;10.782;2022-12-10T13:28:22;24.42;;;12.82;;
39846;SDS011;25517;52.422;10.782;2022-12-10T13:36:33;19.83;;;11.07;;
39846;SDS011;25517;52.422;10.782;2022-12-10T13:41:31;20.25;;;11.77;;
39846;SDS011;25517;52.422;10.782;2022-12-10T13:44:49;22.67;;;11.88;;
39846;SDS011;25517;52.422;10.782;2022-12-10T13:50:02;18.98;;;11.10;;
39846;SDS011;25517;52.422;10.782;2022-12-10T14:01:03;23.00;;;12.27;;
39846;SDS011;25517;52.422;10.782;2022-12-10T14:04:44;22.65;;;12.60;;
39846;SDS011;25517;52.422;10.782;2022-12-10T14:07:00;20.80;;;12.13;;
39846;SDS011;25517;52.422;10.782;2022-12-10T14:09:30;26.45;;;12.50;;
39846;SDS011;25517;52.422;10.782;2022-12-10T14:12:01;21.13;;;12.10;;
39846;SDS011;25517;52.422;10.782;2022-12-10T14:14:37;20.25;;;11.63;;
39846;SDS011;25517;52.422;10.782;2022-12-10T14:17:08;19.58;;;10.27;;
39846;SDS011;25517;52.422;10.782;2022-12-10T14:19:41;24.77;;;12.88;;
39846;SDS011;25517;52.422;10.782;2022-12-10T14:22:13;25.23;;;13.70;;
39846;SDS011;25517;52.422;10.782;2022-12-10T14:24:42;23.67;;;12.90;;
39846;SDS011;25517;52.422;10.782;2022-12-10T14:27:18;23.02;;;11.88;;
39846;SDS011;25517;52.422;10.782;2022-12-10T14:29:49;26.10;;;14.20;;
39846;SDS011;25517;52.422;10.782;2022-12-10T14:32:26;26.70;;;13.75;;
39846;SDS011;25517;52.422;10.782;2022-12-10T14:34:57;29.38;;;13.55;;
39846;SDS011;25517;52.422;10.782;2022-12-10T14:37:26;22.23;;;12.85;;
39846;SDS011;25517;52.422;10.782;2022-12-10T14:39:53;23.25;;;12.82;;
39846;SDS011;25517;52.422;10.782;2022-12-10T14:42:19;25.42;;;12.88;;
39846;SDS011;25517;52.422;10.782;2022-12-10T14:44:44;25.10;;;14.25;;
39846;SDS011;25517;52.422;10.782;2022-12-10T14:47:14;66.00;;;30.48;;
39846;SDS011;25517;52.422;10.782;2022-12-10T14:49:45;28.65;;;15.38;;
39846;SDS011;25517;52.422;10.782;2022-12-10T14:52:14;25.45;;;14.07;;
39846;SDS011;25517;52.422;10.782;2022-12-10T14:54:42;27.30;;;13.60;;
39846;SDS011;25517;52.422;10.782;2022-12-10T14:57:11;26.55;;;14.88;;
39846;SDS011;25517;52.422;10.782;2022-12-10T15:02:35;42.78;;;21.40;;
39846;SDS011;25517;52.422;10.782;2022-12-10T15:05:03;34.83;;;17.80;;
39846;SDS011;25517;52.422;10.782;2022-12-10T15:07:36;38.63;;;17.40;;
39846;SDS011;25517;52.422;10.782;2022-12-10T15:10:06;27.85;;;14.30;;
39846;SDS011;25517;52.422;10.782;2022-12-10T15:12:43;28.55;;;15.05;;
39846;SDS011;25517;52.422;10.782;2022-12-10T15:15:15;29.73;;;14.15;;
39846;SDS011;25517;52.422;10.782;2022-12-10T15:17:57;24.95;;;13.70;;
39846;SDS011;25517;52.422;10.782;2022-12-10T15:20:27;27.92;;;13.98;;
39846;SDS011;25517;52.422;10.782;2022-12-10T15:23:05;26.75;;;13.32;;
39846;SDS011;25517;52.422;10.782;2022-12-10T15:25:58;28.60;;;14.20;;
39846;SDS011;25517;52.422;10.782;2022-12-10T15:31:13;28.95;;;15.15;;
39846;SDS011;25517;52.422;10.782;2022-12-10T15:33:41;26.45;;;13.35;;
39846;SDS011;25517;52.422;10.782;2022-12-10T15:36:18;31.67;;;16.23;;
39846;SDS011;25517;52.422;10.782;2022-12-10T15:38:50;33.00;;;16.88;;
39846;SDS011;25517;52.422;10.782;2022-12-10T15:41:22;31.30;;;15.60;;
39846;SDS011;25517;52.422;10.782;2022-12-10T15:43:58;32.80;;;15.90;;
39846;SDS011;25517;52.422;10.782;2022-12-10T15:46:27;35.97;;;17.05;;
39846;SDS011;25517;52.422;10.782;2022-12-10T15:48:53;39.38;;;19.08;;
39846;SDS011;25517;52.422;10.782;2022-12-10T15:51:18;39.63;;;16.98;;
39846;SDS011;25517;52.422;10.782;2022-12-10T15:53:44;41.38;;;19.52;;
39846;SDS011;25517;52.422;10.782;2022-12-10T15:56:09;107.82;;;48.05;;
39846;SDS011;25517;52.422;10.782;2022-12-10T15:58:35;39.78;;;20.20;;
39846;SDS011;25517;52.422;10.782;2022-12-10T16:01:00;32.90;;;16.80;;
39846;SDS011;25517;52.422;10.782;2022-12-10T16:03:26;29.55;;;16.10;;
39846;SDS011;25517;52.422;10.782;2022-12-10T16:05:53;34.65;;;16.52;;